createdAt,value
2023-05-13T00:01:16.572Z,4.13
2023-05-13T00:03:43.910Z,4.30
2023-05-13T00:06:10.700Z,4.63
2023-05-13T00:08:37.059Z,4.32
2023-05-13T00:11:03.510Z,4.18
2023-05-13T00:13:29.936Z,4.30
2023-05-13T00:15:56.321Z,4.10
2023-05-13T00:18:22.764Z,4.07
2023-05-13T00:20:49.180Z,4.03
2023-05-13T00:23:15.559Z,4.20
2023-05-13T00:25:44.075Z,4.05
2023-05-13T00:28:11.112Z,4.13
2023-05-13T00:30:37.473Z,4.57
2023-05-13T00:33:04.320Z,4.45
2023-05-13T00:35:30.701Z,4.35
2023-05-13T00:37:57.054Z,4.30
2023-05-13T00:40:24.552Z,4.40
2023-05-13T00:42:51.439Z,4.22
2023-05-13T00:45:18.072Z,4.10
2023-05-13T00:47:44.521Z,4.50
2023-05-13T00:50:11.286Z,4.30
2023-05-13T00:52:38.840Z,4.32
2023-05-13T00:55:05.536Z,3.92
2023-05-13T00:57:32.543Z,4.13
2023-05-13T00:59:59.094Z,3.95
2023-05-13T01:02:37.708Z,4.30
2023-05-13T01:05:07.202Z,4.30
2023-05-13T01:07:36.625Z,3.97
2023-05-13T01:10:03.106Z,4.55
2023-05-13T01:12:33.948Z,4.70
2023-05-13T01:15:10.818Z,5.03
2023-05-13T01:17:56.017Z,5.18
2023-05-13T01:20:23.525Z,4.43
2023-05-13T01:22:50.654Z,4.32
2023-05-13T01:25:19.626Z,4.80
2023-05-13T01:27:46.167Z,4.93
2023-05-13T01:30:12.892Z,4.70
2023-05-13T01:32:39.385Z,4.40
2023-05-13T01:35:07.072Z,4.30
2023-05-13T01:37:35.841Z,4.20
2023-05-13T01:40:05.832Z,4.50
2023-05-13T01:42:36.294Z,4.22
2023-05-13T01:45:03.248Z,3.92
2023-05-13T01:47:29.702Z,3.90
2023-05-13T01:49:56.176Z,3.90
2023-05-13T01:52:22.540Z,3.80
2023-05-13T01:54:49.032Z,3.47
2023-05-13T01:57:15.438Z,3.60
2023-05-13T01:59:41.793Z,3.40
2023-05-13T02:02:08.169Z,3.80
2023-05-13T02:04:34.590Z,3.83
2023-05-13T02:07:00.952Z,3.28
2023-05-13T02:09:27.389Z,3.45
2023-05-13T02:11:53.768Z,3.50
2023-05-13T02:14:20.590Z,3.47
2023-05-13T02:16:46.986Z,3.60
2023-05-13T02:19:13.440Z,4.10
2023-05-13T02:21:39.934Z,4.07
2023-05-13T02:24:06.441Z,3.67
2023-05-13T02:26:32.788Z,3.97
2023-05-13T02:28:59.204Z,4.38
2023-05-13T02:31:25.609Z,4.10
2023-05-13T02:33:52.002Z,3.92
2023-05-13T02:36:18.338Z,4.00
2023-05-13T02:38:44.681Z,4.13
2023-05-13T02:41:11.032Z,4.60
2023-05-13T02:43:37.643Z,4.47
2023-05-13T02:46:04.088Z,3.92
2023-05-13T02:48:30.498Z,3.90
2023-05-13T02:50:56.942Z,4.40
2023-05-13T02:53:24.097Z,4.57
2023-05-13T02:55:50.490Z,5.53
2023-05-13T02:58:16.923Z,4.50
2023-05-13T03:00:43.301Z,4.35
2023-05-13T03:03:09.755Z,4.53
2023-05-13T03:05:36.190Z,4.22
2023-05-13T03:08:02.547Z,4.20
2023-05-13T03:10:28.877Z,4.10
2023-05-13T03:12:55.450Z,3.83
2023-05-13T03:15:22.247Z,3.97
2023-05-13T03:17:48.645Z,4.43
2023-05-13T03:20:15.161Z,5.22
2023-05-13T03:22:41.940Z,4.70
2023-05-13T03:25:08.406Z,4.50
2023-05-13T03:27:34.808Z,4.32
2023-05-13T03:30:01.267Z,4.30
2023-05-13T03:32:30.596Z,4.75
2023-05-13T03:34:57.736Z,4.50
2023-05-13T03:37:24.569Z,4.55
2023-05-13T03:39:51.398Z,4.20
2023-05-13T03:42:17.924Z,4.20
2023-05-13T03:44:44.294Z,4.32
2023-05-13T03:47:10.791Z,4.80
2023-05-13T03:49:37.702Z,4.38
2023-05-13T03:52:04.196Z,4.60
2023-05-13T03:54:30.715Z,4.32
2023-05-13T03:56:57.024Z,4.75
2023-05-13T03:59:24.222Z,4.50
2023-05-13T04:01:51.070Z,4.78
2023-05-13T04:04:17.493Z,4.22
2023-05-13T04:06:43.852Z,4.63
2023-05-13T04:09:10.305Z,4.28
2023-05-13T04:11:36.705Z,4.22
2023-05-13T04:14:03.023Z,4.88
2023-05-13T04:16:29.548Z,4.40
2023-05-13T04:18:55.984Z,4.22
2023-05-13T04:21:24.538Z,4.13
2023-05-13T04:23:50.885Z,4.47
2023-05-13T04:26:17.246Z,4.80
2023-05-13T04:28:43.597Z,4.70
2023-05-13T04:31:10.119Z,4.78
2023-05-13T04:33:36.463Z,4.75
2023-05-13T04:36:02.889Z,4.72
2023-05-13T04:38:29.231Z,5.13
2023-05-13T04:40:55.779Z,4.43
2023-05-13T04:43:22.301Z,5.15
2023-05-13T04:45:49.143Z,4.43
2023-05-13T04:48:16.225Z,5.55
2023-05-13T04:50:48.498Z,5.15
2023-05-13T04:53:15.690Z,5.07
2023-05-13T04:55:42.117Z,4.72
2023-05-13T04:58:08.574Z,5.00
2023-05-13T05:00:34.989Z,4.40
2023-05-13T05:03:01.408Z,4.10
2023-05-13T05:05:27.969Z,4.80
2023-05-13T05:07:54.448Z,4.40
2023-05-13T05:10:21.048Z,4.53
2023-05-13T05:12:47.678Z,4.53
2023-05-13T05:15:17.099Z,4.50
2023-05-13T05:17:43.927Z,4.40
2023-05-13T05:20:10.806Z,4.60
2023-05-13T05:22:41.714Z,4.80
2023-05-13T05:25:09.442Z,4.40
2023-05-13T05:27:35.858Z,4.22
2023-05-13T05:30:02.218Z,4.30
2023-05-13T05:32:28.609Z,4.60
2023-05-13T05:34:54.975Z,4.60
2023-05-13T05:37:21.367Z,3.78
2023-05-13T05:39:47.760Z,4.00
2023-05-13T05:42:14.120Z,4.47
2023-05-13T05:44:40.708Z,3.40
2023-05-13T05:47:07.096Z,3.55
2023-05-13T05:49:33.534Z,3.55
2023-05-13T05:51:59.950Z,3.45
2023-05-13T05:54:26.283Z,3.72
2023-05-13T05:56:52.630Z,3.20
2023-05-13T05:59:18.988Z,3.67
2023-05-13T06:01:46.129Z,3.72
2023-05-13T06:04:12.593Z,3.20
2023-05-13T06:06:40.327Z,2.90
2023-05-13T06:09:06.738Z,2.72
2023-05-13T06:11:33.346Z,3.00
2023-05-13T06:13:59.711Z,3.10
2023-05-13T06:16:26.252Z,2.90
2023-05-13T06:18:52.805Z,3.30
2023-05-13T06:21:19.296Z,2.92
2023-05-13T06:23:45.891Z,3.08
2023-05-13T06:26:12.266Z,3.00
2023-05-13T06:28:38.642Z,3.00
2023-05-13T06:31:05.191Z,2.92
2023-05-13T06:33:31.666Z,2.53
2023-05-13T06:35:58.105Z,2.80
2023-05-13T06:38:24.566Z,2.70
2023-05-13T06:40:50.906Z,3.00
2023-05-13T06:43:18.144Z,2.90
2023-05-13T06:45:44.516Z,2.67
2023-05-13T06:48:11.050Z,3.22
2023-05-13T06:50:37.575Z,3.30
2023-05-13T06:53:04.016Z,3.00
2023-05-13T06:55:30.440Z,2.97
2023-05-13T06:57:56.806Z,3.10
2023-05-13T07:00:23.543Z,3.03
2023-05-13T07:02:52.278Z,3.05
2023-05-13T07:05:18.699Z,3.10
2023-05-13T07:07:45.938Z,2.90
2023-05-13T07:10:12.478Z,3.20
2023-05-13T07:12:38.915Z,3.28
2023-05-13T07:15:05.741Z,3.03
2023-05-13T07:17:32.324Z,2.90
2023-05-13T07:19:59.146Z,3.95
2023-05-13T07:22:25.569Z,3.08
2023-05-13T07:24:51.950Z,3.30
2023-05-13T07:27:18.304Z,3.00
2023-05-13T07:29:44.666Z,2.75
2023-05-13T07:32:11.092Z,2.90
2023-05-13T07:34:37.669Z,2.80
2023-05-13T07:37:04.619Z,2.80
2023-05-13T07:39:31.210Z,2.83
2023-05-13T07:41:57.729Z,3.03
2023-05-13T07:44:24.141Z,3.17
2023-05-13T07:46:53.344Z,2.70
2023-05-13T07:49:20.525Z,3.22
2023-05-13T07:51:47.266Z,3.40
2023-05-13T07:54:13.651Z,3.03
2023-05-13T07:56:40.308Z,2.90
2023-05-13T07:59:06.714Z,3.03
2023-05-13T08:01:33.178Z,2.70
2023-05-13T08:03:59.790Z,2.70
2023-05-13T08:06:28.699Z,2.60
2023-05-13T08:08:55.132Z,2.80
2023-05-13T08:11:21.809Z,2.85
2023-05-13T08:13:51.231Z,2.45
2023-05-13T08:16:17.687Z,2.63
2023-05-13T08:18:44.141Z,2.90
2023-05-13T08:21:10.665Z,2.45
2023-05-13T08:23:44.662Z,2.97
2023-05-13T08:26:11.853Z,2.42
2023-05-13T08:28:38.277Z,2.53
2023-05-13T08:31:06.873Z,2.58
2023-05-13T08:33:33.472Z,2.40
2023-05-13T08:36:01.146Z,2.50
2023-05-13T08:38:29.889Z,2.25
2023-05-13T08:40:57.346Z,2.20
2023-05-13T08:43:26.084Z,2.20
2023-05-13T08:45:53.614Z,2.60
2023-05-13T08:48:20.526Z,2.30
2023-05-13T08:50:47.064Z,2.38
2023-05-13T08:53:13.484Z,2.47
2023-05-13T08:55:42.603Z,2.00
2023-05-13T08:58:09.069Z,2.30
2023-05-13T09:00:35.566Z,2.58
2023-05-13T09:03:02.183Z,2.10
2023-05-13T09:05:28.916Z,2.40
2023-05-13T09:07:55.600Z,2.38
2023-05-13T09:10:22.182Z,2.30
2023-05-13T09:12:54.747Z,2.30
2023-05-13T09:15:25.302Z,2.45
2023-05-13T09:17:53.688Z,2.33
2023-05-13T09:20:20.970Z,2.08
2023-05-13T09:22:48.405Z,1.98
2023-05-13T09:25:16.272Z,2.00
2023-05-13T09:27:44.600Z,2.17
2023-05-13T09:30:11.863Z,1.70
2023-05-13T09:32:39.968Z,1.60
2023-05-13T09:35:11.168Z,1.65
2023-05-13T09:37:38.031Z,1.70
2023-05-13T09:40:04.654Z,1.70
2023-05-13T09:42:33.038Z,1.80
2023-05-13T09:45:04.217Z,2.15
2023-05-13T09:47:30.746Z,1.90
2023-05-13T09:49:57.683Z,1.65
2023-05-13T09:52:24.098Z,1.45
2023-05-13T09:54:50.527Z,1.75
2023-05-13T09:57:16.921Z,1.70
2023-05-13T09:59:43.337Z,2.33
2023-05-13T10:02:10.757Z,1.73
2023-05-13T10:04:37.307Z,1.33
2023-05-13T10:07:04.233Z,3.30
2023-05-13T10:09:33.234Z,4.53
2023-05-13T10:11:59.916Z,1.88
2023-05-13T10:14:29.307Z,1.40
2023-05-13T10:16:57.125Z,1.30
2023-05-13T10:19:24.324Z,1.27
2023-05-13T10:21:52.394Z,1.20
2023-05-13T10:24:19.447Z,1.30
2023-05-13T10:26:50.920Z,1.20
2023-05-13T10:29:17.971Z,1.00
2023-05-13T10:31:45.870Z,1.05
2023-05-13T10:34:12.593Z,1.13
2023-05-13T10:36:45.095Z,1.30
2023-05-13T10:39:24.371Z,1.20
2023-05-13T10:41:50.954Z,1.23
2023-05-13T10:44:19.560Z,1.20
2023-05-13T10:46:49.228Z,1.00
2023-05-13T10:49:16.247Z,1.33
2023-05-13T10:51:47.297Z,1.45
2023-05-13T10:54:20.707Z,1.23
2023-05-13T10:56:55.991Z,1.30
2023-05-13T10:59:22.398Z,1.25
2023-05-13T11:01:49.388Z,1.40
2023-05-13T11:04:16.753Z,1.60
2023-05-13T11:06:46.773Z,1.50
2023-05-13T11:09:13.121Z,1.70
2023-05-13T11:11:39.890Z,1.10
2023-05-13T11:14:14.435Z,1.00
2023-05-13T11:16:45.491Z,1.02
2023-05-13T11:19:19.443Z,2.25
2023-05-13T11:21:47.666Z,1.98
2023-05-13T11:24:17.177Z,0.93
2023-05-13T11:26:59.194Z,1.00
2023-05-13T11:29:29.281Z,1.23
2023-05-13T11:32:00.073Z,1.40
2023-05-13T11:34:27.126Z,1.20
2023-05-13T11:36:57.737Z,1.08
2023-05-13T11:39:26.525Z,1.17
2023-05-13T11:41:53.625Z,1.40
2023-05-13T11:44:20.987Z,1.35
2023-05-13T11:46:50.096Z,1.73
2023-05-13T11:49:35.452Z,0.95
2023-05-13T11:52:12.508Z,1.00
2023-05-13T11:54:46.442Z,0.90
2023-05-13T11:57:26.780Z,0.70
2023-05-13T12:00:04.855Z,1.17
2023-05-13T12:02:33.639Z,0.82
2023-05-13T12:05:07.684Z,0.65
2023-05-13T12:07:35.781Z,0.70
2023-05-13T12:10:02.975Z,0.88
2023-05-13T12:12:30.198Z,0.98
2023-05-13T12:15:00.476Z,0.93
2023-05-13T12:17:27.158Z,0.77
2023-05-13T12:20:12.642Z,1.08
2023-05-13T12:22:45.242Z,1.00
2023-05-13T12:25:30.656Z,1.00
2023-05-13T12:27:57.512Z,0.80
2023-05-13T12:30:26.399Z,0.85
2023-05-13T12:32:58.369Z,0.90
2023-05-13T12:35:24.743Z,1.20
2023-05-13T12:38:04.150Z,0.80
2023-05-13T12:40:33.136Z,0.70
2023-05-13T12:43:00.020Z,0.75
2023-05-13T12:45:30.552Z,0.82
2023-05-13T12:47:57.692Z,0.80
2023-05-13T12:50:24.335Z,1.05
2023-05-13T12:52:51.619Z,0.70
2023-05-13T12:55:18.383Z,0.80
2023-05-13T12:57:54.353Z,1.00
2023-05-13T13:00:21.034Z,0.90
2023-05-13T13:02:47.567Z,1.02
2023-05-13T13:05:13.977Z,1.00
2023-05-13T13:07:42.153Z,1.02
2023-05-13T13:10:09.376Z,0.90
2023-05-13T13:12:38.245Z,0.82
2023-05-13T13:15:05.598Z,1.00
2023-05-13T13:17:32.110Z,0.90
2023-05-13T13:19:58.476Z,0.60
2023-05-13T13:22:25.941Z,0.68
2023-05-13T13:24:54.808Z,3.22
2023-05-13T13:27:21.254Z,2.85
2023-05-13T13:29:47.818Z,0.70
2023-05-13T13:32:14.269Z,0.80
2023-05-13T13:34:40.733Z,0.90
2023-05-13T13:37:07.101Z,1.00
2023-05-13T13:39:34.808Z,0.70
2023-05-13T13:42:04.506Z,0.80
2023-05-13T13:44:31.474Z,0.80
2023-05-13T13:46:58.449Z,0.50
2023-05-13T13:49:25.212Z,0.55
2023-05-13T13:51:55.010Z,1.00
2023-05-13T13:54:21.430Z,0.90
2023-05-13T13:56:48.022Z,1.10
2023-05-13T13:59:14.386Z,0.75
2023-05-13T14:01:40.764Z,0.95
2023-05-13T14:04:17.357Z,0.70
2023-05-13T14:06:44.594Z,0.77
2023-05-13T14:09:11.060Z,0.70
2023-05-13T14:11:37.590Z,0.80
2023-05-13T14:14:04.268Z,0.70
2023-05-13T14:16:30.757Z,0.80
2023-05-13T14:18:57.305Z,0.60
2023-05-13T14:21:24.185Z,0.77
2023-05-13T14:23:50.711Z,0.68
2023-05-13T14:26:19.684Z,0.60
2023-05-13T14:28:46.296Z,0.80
2023-05-13T14:31:12.728Z,0.80
2023-05-13T14:33:39.147Z,0.80
2023-05-13T14:36:05.805Z,0.82
2023-05-13T14:38:32.215Z,0.70
2023-05-13T14:40:58.680Z,1.00
2023-05-13T14:43:27.540Z,0.70
2023-05-13T14:45:54.039Z,0.95
2023-05-13T14:48:20.444Z,0.70
2023-05-13T14:50:47.001Z,0.65
2023-05-13T14:53:13.747Z,0.68
2023-05-13T14:55:40.369Z,0.73
2023-05-13T14:58:09.670Z,0.70
2023-05-13T15:00:39.942Z,0.50
2023-05-13T15:03:06.578Z,0.57
2023-05-13T15:05:33.192Z,0.70
2023-05-13T15:08:00.127Z,0.60
2023-05-13T15:10:26.561Z,0.70
2023-05-13T15:12:52.998Z,1.20
2023-05-13T15:15:19.383Z,1.00
2023-05-13T15:17:45.730Z,1.10
2023-05-13T15:20:12.421Z,0.90
2023-05-13T15:22:38.875Z,1.00
2023-05-13T15:25:05.761Z,0.70
2023-05-13T15:27:32.090Z,0.80
2023-05-13T15:29:58.512Z,0.90
2023-05-13T15:32:24.845Z,1.10
2023-05-13T15:34:51.314Z,1.02
2023-05-13T15:37:17.741Z,1.00
2023-05-13T15:39:44.447Z,1.13
2023-05-13T15:42:10.814Z,1.00
2023-05-13T15:44:37.183Z,0.90
2023-05-13T15:47:05.898Z,0.95
2023-05-13T15:49:35.701Z,1.02
2023-05-13T15:52:02.723Z,1.20
2023-05-13T15:54:29.905Z,1.10
2023-05-13T15:56:58.849Z,1.13
2023-05-13T15:59:25.206Z,1.30
2023-05-13T16:01:51.779Z,1.20
2023-05-13T16:04:18.252Z,1.25
2023-05-13T16:06:44.713Z,2.00
2023-05-13T16:09:11.112Z,2.17
2023-05-13T16:11:37.609Z,2.40
2023-05-13T16:14:04.624Z,3.33
2023-05-13T16:16:31.121Z,3.78
2023-05-13T16:18:58.475Z,4.28
2023-05-13T16:21:24.934Z,4.10
2023-05-13T16:23:51.302Z,4.20
2023-05-13T16:26:17.651Z,4.63
2023-05-13T16:28:44.039Z,4.50
2023-05-13T16:31:10.473Z,4.65
2023-05-13T16:33:36.931Z,5.22
2023-05-13T16:36:03.622Z,4.68
2023-05-13T16:38:30.474Z,5.30
2023-05-13T16:40:59.325Z,4.07
2023-05-13T16:43:25.663Z,2.80
2023-05-13T16:45:52.301Z,2.95
2023-05-13T16:48:18.775Z,2.72
2023-05-13T16:50:45.444Z,2.80
2023-05-13T16:53:11.885Z,2.80
2023-05-13T16:55:38.497Z,2.72
2023-05-13T16:58:04.874Z,2.50
2023-05-13T17:00:31.378Z,3.30
2023-05-13T17:02:57.903Z,2.90
2023-05-13T17:05:24.787Z,3.10
2023-05-13T17:07:53.663Z,3.05
2023-05-13T17:10:28.091Z,3.30
2023-05-13T17:12:55.344Z,3.50
2023-05-13T17:15:22.839Z,3.50
2023-05-13T17:17:49.213Z,3.75
2023-05-13T17:20:15.842Z,3.78
2023-05-13T17:22:47.117Z,4.00
2023-05-13T17:25:16.573Z,3.95
2023-05-13T17:27:42.997Z,3.88
2023-05-13T17:30:09.693Z,4.57
2023-05-13T17:32:36.273Z,4.25
2023-05-13T17:35:03.517Z,4.05
2023-05-13T17:37:29.997Z,4.18
2023-05-13T17:39:58.540Z,4.53
2023-05-13T17:42:24.928Z,4.40
2023-05-13T17:44:51.364Z,4.13
2023-05-13T17:47:17.814Z,4.22
2023-05-13T17:49:44.217Z,4.60
2023-05-13T17:52:10.762Z,4.35
2023-05-13T17:54:37.252Z,4.50
2023-05-13T17:57:03.726Z,5.80
2023-05-13T17:59:30.095Z,5.00
2023-05-13T18:01:56.487Z,5.15
2023-05-13T18:04:25.376Z,4.82
2023-05-13T18:06:51.800Z,5.38
2023-05-13T18:09:18.258Z,5.18
2023-05-13T18:11:45.383Z,5.10
2023-05-13T18:14:11.716Z,5.43
2023-05-13T18:16:38.248Z,5.45
2023-05-13T18:19:07.085Z,5.13
2023-05-13T18:21:33.560Z,5.72
2023-05-13T18:24:02.330Z,5.45
2023-05-13T18:26:28.742Z,5.15
2023-05-13T18:28:55.313Z,5.93
2023-05-13T18:31:21.711Z,5.57
2023-05-13T18:33:48.156Z,5.57
2023-05-13T18:36:14.678Z,5.28
2023-05-13T18:38:41.058Z,5.80
2023-05-13T18:41:07.500Z,6.05
2023-05-13T18:43:33.943Z,6.00
2023-05-13T18:46:00.534Z,5.70
2023-05-13T18:48:27.050Z,6.03
2023-05-13T18:50:53.425Z,6.00
2023-05-13T18:53:19.930Z,6.05
2023-05-13T18:55:46.562Z,5.65
2023-05-13T18:58:15.530Z,5.53
2023-05-13T19:00:44.571Z,5.78
2023-05-13T19:03:11.347Z,5.38
2023-05-13T19:05:37.989Z,5.78
2023-05-13T19:08:05.270Z,6.07
2023-05-13T19:10:36.816Z,6.10
2023-05-13T19:13:08.688Z,5.85
2023-05-13T19:15:35.336Z,5.72
2023-05-13T19:18:01.990Z,5.63
2023-05-13T19:20:29.078Z,5.88
2023-05-13T19:22:55.480Z,6.18
2023-05-13T19:25:21.922Z,5.80
2023-05-13T19:27:49.360Z,5.95
2023-05-13T19:30:16.020Z,5.43
2023-05-13T19:32:43.601Z,6.30
2023-05-13T19:35:10.434Z,6.20
2023-05-13T19:37:36.848Z,6.30
2023-05-13T19:40:03.340Z,5.78
2023-05-13T19:42:29.765Z,6.38
2023-05-13T19:44:56.175Z,6.10
2023-05-13T19:47:22.583Z,5.68
2023-05-13T19:49:48.960Z,6.13
2023-05-13T19:52:15.535Z,6.30
2023-05-13T19:54:41.868Z,5.82
2023-05-13T19:57:08.284Z,6.13
2023-05-13T19:59:35.947Z,6.50
2023-05-13T20:02:02.641Z,6.65
2023-05-13T20:04:29.077Z,6.22
2023-05-13T20:06:55.524Z,6.10
2023-05-13T20:09:25.479Z,6.13
2023-05-13T20:11:51.864Z,5.88
2023-05-13T20:14:27.901Z,6.32
2023-05-13T20:16:54.621Z,6.30
2023-05-13T20:19:21.212Z,6.05
2023-05-13T20:21:47.732Z,6.90
2023-05-13T20:24:14.082Z,6.70
2023-05-13T20:26:40.495Z,5.93
2023-05-13T20:29:06.865Z,5.70
2023-05-13T20:31:33.315Z,6.03
2023-05-13T20:34:00.277Z,6.13
2023-05-13T20:36:26.881Z,5.88
2023-05-13T20:38:53.385Z,6.40
2023-05-13T20:41:19.736Z,5.88
2023-05-13T20:43:46.254Z,5.60
2023-05-13T20:46:16.707Z,6.35
2023-05-13T20:48:43.316Z,6.97
2023-05-13T20:51:09.721Z,6.25
2023-05-13T20:53:36.514Z,6.50
2023-05-13T20:56:03.726Z,6.40
2023-05-13T20:58:30.415Z,6.70
2023-05-13T21:00:56.908Z,6.57
2023-05-13T21:03:23.398Z,6.50
2023-05-13T21:05:49.822Z,6.40
2023-05-13T21:08:16.198Z,6.65
2023-05-13T21:10:42.598Z,6.25
2023-05-13T21:13:08.967Z,6.60
2023-05-13T21:15:35.345Z,6.30
2023-05-13T21:18:01.778Z,5.93
2023-05-13T21:20:28.182Z,6.15
2023-05-13T21:22:54.539Z,6.20
2023-05-13T21:25:21.023Z,5.85
2023-05-13T21:27:48.251Z,6.22
2023-05-13T21:30:14.695Z,5.78
2023-05-13T21:32:41.076Z,6.82
2023-05-13T21:35:07.734Z,6.43
2023-05-13T21:37:34.129Z,6.28
2023-05-13T21:40:00.588Z,5.78
2023-05-13T21:42:27.206Z,5.95
2023-05-13T21:44:53.585Z,5.93
2023-05-13T21:47:19.988Z,6.30
2023-05-13T21:49:46.396Z,6.18
2023-05-13T21:52:12.823Z,6.63
2023-05-13T21:54:39.386Z,5.85
2023-05-13T21:57:05.789Z,6.25
2023-05-13T21:59:32.150Z,6.57
2023-05-13T22:01:58.591Z,6.28
2023-05-13T22:04:26.507Z,6.47
2023-05-13T22:06:53.332Z,6.57
2023-05-13T22:09:19.711Z,6.15
2023-05-13T22:11:46.103Z,6.85
2023-05-13T22:14:12.560Z,6.38
2023-05-13T22:16:39.060Z,6.57
2023-05-13T22:19:08.260Z,5.93
2023-05-13T22:21:34.809Z,6.57
2023-05-13T22:24:01.390Z,6.85
2023-05-13T22:26:27.802Z,6.68
2023-05-13T22:28:54.136Z,6.15
2023-05-13T22:31:20.991Z,6.70
2023-05-13T22:33:47.336Z,6.60
2023-05-13T22:36:13.973Z,6.32
2023-05-13T22:38:41.268Z,6.20
2023-05-13T22:41:07.678Z,6.32
2023-05-13T22:43:34.147Z,6.95
2023-05-13T22:46:00.804Z,6.07
2023-05-13T22:48:27.216Z,6.63
2023-05-13T22:50:54.167Z,6.30
2023-05-13T22:53:20.698Z,6.18
2023-05-13T22:55:47.092Z,6.70
2023-05-13T22:58:13.468Z,6.88
2023-05-13T23:00:40.079Z,6.50
2023-05-13T23:03:06.464Z,7.40
2023-05-13T23:05:32.892Z,7.35
2023-05-13T23:07:59.319Z,7.00
2023-05-13T23:10:25.731Z,7.20
2023-05-13T23:12:52.097Z,7.00
2023-05-13T23:15:18.536Z,8.00
2023-05-13T23:17:45.085Z,7.85
2023-05-13T23:20:11.695Z,7.82
2023-05-13T23:22:38.619Z,7.25
2023-05-13T23:25:05.740Z,7.72
2023-05-13T23:27:32.076Z,7.57
2023-05-13T23:29:58.730Z,7.93
2023-05-13T23:32:25.719Z,8.15
2023-05-13T23:34:55.205Z,8.15
2023-05-13T23:37:22.150Z,7.82
2023-05-13T23:39:48.520Z,8.00
2023-05-13T23:42:14.906Z,7.97
2023-05-13T23:44:41.361Z,8.48
2023-05-13T23:47:07.805Z,8.15
2023-05-13T23:49:36.639Z,8.05
2023-05-13T23:52:03.018Z,8.38
2023-05-13T23:54:29.401Z,8.05
2023-05-13T23:56:55.832Z,8.30
2023-05-13T23:59:22.196Z,8.02
